sensor_id;sensor_type;location;lat;lon;timestamp;temperature;humidity
45435;DHT22;31183;47.404;8.500;2023-05-13T00:01:39;13.60;99.90
45435;DHT22;31183;47.404;8.500;2023-05-13T00:04:07;13.50;99.90
45435;DHT22;31183;47.404;8.500;2023-05-13T00:06:34;13.40;99.90
45435;DHT22;31183;47.404;8.500;2023-05-13T00:09:02;13.50;99.90
45435;DHT22;31183;47.404;8.500;2023-05-13T00:11:28;13.40;99.90
45435;DHT22;31183;47.404;8.500;2023-05-13T00:13:55;13.40;99.90
45435;DHT22;31183;47.404;8.500;2023-05-13T00:16:22;13.50;99.90
45435;DHT22;31183;47.404;8.500;2023-05-13T00:18:53;13.50;99.90
45435;DHT22;31183;47.404;8.500;2023-05-13T00:21:20;13.50;99.90
45435;DHT22;31183;47.404;8.500;2023-05-13T00:23:47;13.40;99.90
45435;DHT22;31183;47.404;8.500;2023-05-13T00:26:14;13.40;99.90
45435;DHT22;31183;47.404;8.500;2023-05-13T00:28:41;13.30;99.90
45435;DHT22;31183;47.404;8.500;2023-05-13T00:31:08;13.30;99.90
45435;DHT22;31183;47.404;8.500;2023-05-13T00:33:35;13.20;99.90
45435;DHT22;31183;47.404;8.500;2023-05-13T00:36:03;13.10;99.90
45435;DHT22;31183;47.404;8.500;2023-05-13T00:38:29;13.00;99.90
45435;DHT22;31183;47.404;8.500;2023-05-13T00:40:56;13.10;99.90
45435;DHT22;31183;47.404;8.500;2023-05-13T00:43:22;13.10;99.90
45435;DHT22;31183;47.404;8.500;2023-05-13T00:45:49;13.20;99.90
45435;DHT22;31183;47.404;8.500;2023-05-13T00:48:16;13.30;99.90
45435;DHT22;31183;47.404;8.500;2023-05-13T00:50:43;13.30;99.90
45435;DHT22;31183;47.404;8.500;2023-05-13T00:53:11;13.30;99.90
45435;DHT22;31183;47.404;8.500;2023-05-13T00:55:42;13.30;99.90
45435;DHT22;31183;47.404;8.500;2023-05-13T00:58:09;13.20;99.90
45435;DHT22;31183;47.404;8.500;2023-05-13T01:00:43;13.10;99.90
45435;DHT22;31183;47.404;8.500;2023-05-13T01:03:20;13.10;99.90
45435;DHT22;31183;47.404;8.500;2023-05-13T01:05:56;13.20;99.90
45435;DHT22;31183;47.404;8.500;2023-05-13T01:11:23;13.10;99.90
45435;DHT22;31183;47.404;8.500;2023-05-13T01:14:15;13.10;99.90
45435;DHT22;31183;47.404;8.500;2023-05-13T01:16:48;13.20;99.90
45435;DHT22;31183;47.404;8.500;2023-05-13T01:22:03;13.20;99.90
45435;DHT22;31183;47.404;8.500;2023-05-13T01:24:30;13.20;99.90
45435;DHT22;31183;47.404;8.500;2023-05-13T01:26:57;13.20;99.90
45435;DHT22;31183;47.404;8.500;2023-05-13T01:29:23;13.10;99.90
45435;DHT22;31183;47.404;8.500;2023-05-13T01:31:51;13.10;99.90
45435;DHT22;31183;47.404;8.500;2023-05-13T01:34:19;13.00;99.90
45435;DHT22;31183;47.404;8.500;2023-05-13T01:36:47;13.00;99.90
45435;DHT22;31183;47.404;8.500;2023-05-13T01:39:14;13.10;99.90
45435;DHT22;31183;47.404;8.500;2023-05-13T01:41:42;13.20;99.90
45435;DHT22;31183;47.404;8.500;2023-05-13T01:44:10;13.20;99.90
45435;DHT22;31183;47.404;8.500;2023-05-13T01:46:41;13.10;99.90
45435;DHT22;31183;47.404;8.500;2023-05-13T01:49:08;13.10;99.90
45435;DHT22;31183;47.404;8.500;2023-05-13T01:51:35;13.20;99.90
45435;DHT22;31183;47.404;8.500;2023-05-13T01:54:03;13.20;99.90
45435;DHT22;31183;47.404;8.500;2023-05-13T01:56:30;13.10;99.90
45435;DHT22;31183;47.404;8.500;2023-05-13T01:58:57;13.00;99.90
45435;DHT22;31183;47.404;8.500;2023-05-13T02:01:23;13.00;99.90
45435;DHT22;31183;47.404;8.500;2023-05-13T02:03:50;13.10;99.90
45435;DHT22;31183;47.404;8.500;2023-05-13T02:06:16;13.00;99.90
45435;DHT22;31183;47.404;8.500;2023-05-13T02:08:43;13.00;99.90
45435;DHT22;31183;47.404;8.500;2023-05-13T02:11:10;13.10;99.90
45435;DHT22;31183;47.404;8.500;2023-05-13T02:13:36;13.10;99.90
45435;DHT22;31183;47.404;8.500;2023-05-13T02:16:03;13.10;99.90
45435;DHT22;31183;47.404;8.500;2023-05-13T02:18:30;13.10;99.90
45435;DHT22;31183;47.404;8.500;2023-05-13T02:20:57;13.00;99.90
45435;DHT22;31183;47.404;8.500;2023-05-13T02:23:23;13.00;99.90
45435;DHT22;31183;47.404;8.500;2023-05-13T02:25:50;13.00;99.90
45435;DHT22;31183;47.404;8.500;2023-05-13T02:28:16;13.00;99.90
45435;DHT22;31183;47.404;8.500;2023-05-13T02:30:43;13.00;99.90
45435;DHT22;31183;47.404;8.500;2023-05-13T02:33:09;13.00;99.90
45435;DHT22;31183;47.404;8.500;2023-05-13T02:35:36;13.00;99.90
45435;DHT22;31183;47.404;8.500;2023-05-13T02:38:03;13.10;99.90
45435;DHT22;31183;47.404;8.500;2023-05-13T02:40:29;13.00;99.90
45435;DHT22;31183;47.404;8.500;2023-05-13T02:42:56;13.00;99.90
45435;DHT22;31183;47.404;8.500;2023-05-13T02:45:23;13.20;99.90
45435;DHT22;31183;47.404;8.500;2023-05-13T02:47:49;13.10;99.90
45435;DHT22;31183;47.404;8.500;2023-05-13T02:50:16;13.10;99.90
45435;DHT22;31183;47.404;8.500;2023-05-13T02:52:43;13.30;99.90
45435;DHT22;31183;47.404;8.500;2023-05-13T02:55:09;13.20;99.90
45435;DHT22;31183;47.404;8.500;2023-05-13T02:57:36;13.40;99.90
45435;DHT22;31183;47.404;8.500;2023-05-13T03:00:04;13.30;99.90
45435;DHT22;31183;47.404;8.500;2023-05-13T03:02:32;13.30;99.90
45435;DHT22;31183;47.404;8.500;2023-05-13T03:04:59;13.20;99.90
45435;DHT22;31183;47.404;8.500;2023-05-13T03:07:25;13.30;99.90
45435;DHT22;31183;47.404;8.500;2023-05-13T03:09:52;13.20;99.90
45435;DHT22;31183;47.404;8.500;2023-05-13T03:12:18;13.20;99.90
45435;DHT22;31183;47.404;8.500;2023-05-13T03:14:45;13.30;99.90
45435;DHT22;31183;47.404;8.500;2023-05-13T03:17:12;13.40;99.90
45435;DHT22;31183;47.404;8.500;2023-05-13T03:19:38;13.40;99.90
45435;DHT22;31183;47.404;8.500;2023-05-13T03:22:05;13.40;99.90
45435;DHT22;31183;47.404;8.500;2023-05-13T03:24:32;13.40;99.90
45435;DHT22;31183;47.404;8.500;2023-05-13T03:26:59;13.40;99.90
45435;DHT22;31183;47.404;8.500;2023-05-13T03:29:25;13.50;99.90
45435;DHT22;31183;47.404;8.500;2023-05-13T03:31:52;13.50;99.90
45435;DHT22;31183;47.404;8.500;2023-05-13T03:34:19;13.50;99.90
45435;DHT22;31183;47.404;8.500;2023-05-13T03:36:46;13.50;99.90
45435;DHT22;31183;47.404;8.500;2023-05-13T03:39:12;13.60;99.90
45435;DHT22;31183;47.404;8.500;2023-05-13T03:41:39;13.60;99.90
45435;DHT22;31183;47.404;8.500;2023-05-13T03:44:06;13.50;99.90
45435;DHT22;31183;47.404;8.500;2023-05-13T03:46:32;13.50;99.90
45435;DHT22;31183;47.404;8.500;2023-05-13T03:48:59;13.40;99.90
45435;DHT22;31183;47.404;8.500;2023-05-13T03:51:26;13.40;99.90
45435;DHT22;31183;47.404;8.500;2023-05-13T03:53:52;13.40;99.90
45435;DHT22;31183;47.404;8.500;2023-05-13T03:56:19;13.60;99.90
45435;DHT22;31183;47.404;8.500;2023-05-13T03:58:47;13.60;99.90
45435;DHT22;31183;47.404;8.500;2023-05-13T04:01:13;13.50;99.90
45435;DHT22;31183;47.404;8.500;2023-05-13T04:03:40;13.50;99.90
45435;DHT22;31183;47.404;8.500;2023-05-13T04:06:09;13.30;99.90
45435;DHT22;31183;47.404;8.500;2023-05-13T04:08:36;13.20;99.90
45435;DHT22;31183;47.404;8.500;2023-05-13T04:11:02;13.20;99.90
45435;DHT22;31183;47.404;8.500;2023-05-13T04:13:29;13.20;99.90
45435;DHT22;31183;47.404;8.500;2023-05-13T04:15:55;13.30;99.90
45435;DHT22;31183;47.404;8.500;2023-05-13T04:18:22;13.30;99.90
45435;DHT22;31183;47.404;8.500;2023-05-13T04:20:48;13.30;99.90
45435;DHT22;31183;47.404;8.500;2023-05-13T04:23:15;13.30;99.90
45435;DHT22;31183;47.404;8.500;2023-05-13T04:25:42;13.30;99.90
45435;DHT22;31183;47.404;8.500;2023-05-13T04:28:08;13.30;99.90
45435;DHT22;31183;47.404;8.500;2023-05-13T04:30:35;13.30;99.90
45435;DHT22;31183;47.404;8.500;2023-05-13T04:33:01;13.20;99.90
45435;DHT22;31183;47.404;8.500;2023-05-13T04:35:28;13.20;99.90
45435;DHT22;31183;47.404;8.500;2023-05-13T04:37:55;13.30;99.90
45435;DHT22;31183;47.404;8.500;2023-05-13T04:40:21;13.20;99.90
45435;DHT22;31183;47.404;8.500;2023-05-13T04:42:48;13.20;99.90
45435;DHT22;31183;47.404;8.500;2023-05-13T04:45:20;13.00;99.90
45435;DHT22;31183;47.404;8.500;2023-05-13T04:47:47;13.00;99.90
45435;DHT22;31183;47.404;8.500;2023-05-13T04:50:14;13.10;99.90
45435;DHT22;31183;47.404;8.500;2023-05-13T04:52:41;13.10;99.90
45435;DHT22;31183;47.404;8.500;2023-05-13T04:55:11;13.00;99.90
45435;DHT22;31183;47.404;8.500;2023-05-13T04:57:38;13.00;99.90
45435;DHT22;31183;47.404;8.500;2023-05-13T05:00:05;12.90;99.90
45435;DHT22;31183;47.404;8.500;2023-05-13T05:02:33;12.90;99.90
45435;DHT22;31183;47.404;8.500;2023-05-13T05:05:00;12.90;99.90
45435;DHT22;31183;47.404;8.500;2023-05-13T05:07:27;13.00;99.90
45435;DHT22;31183;47.404;8.500;2023-05-13T05:09:54;12.90;99.90
45435;DHT22;31183;47.404;8.500;2023-05-13T05:12:20;12.90;99.90
45435;DHT22;31183;47.404;8.500;2023-05-13T05:14:47;12.90;99.90
45435;DHT22;31183;47.404;8.500;2023-05-13T05:17:15;12.90;99.90
45435;DHT22;31183;47.404;8.500;2023-05-13T05:19:41;13.00;99.90
45435;DHT22;31183;47.404;8.500;2023-05-13T05:22:08;13.10;99.90
45435;DHT22;31183;47.404;8.500;2023-05-13T05:24:35;13.20;99.90
45435;DHT22;31183;47.404;8.500;2023-05-13T05:27:01;13.10;99.90
45435;DHT22;31183;47.404;8.500;2023-05-13T05:29:28;13.00;99.90
45435;DHT22;31183;47.404;8.500;2023-05-13T05:31:54;13.00;99.90
45435;DHT22;31183;47.404;8.500;2023-05-13T05:34:21;13.00;99.90
45435;DHT22;31183;47.404;8.500;2023-05-13T05:36:48;13.10;99.90
45435;DHT22;31183;47.404;8.500;2023-05-13T05:39:14;13.20;99.90
45435;DHT22;31183;47.404;8.500;2023-05-13T05:41:41;13.20;99.90
45435;DHT22;31183;47.404;8.500;2023-05-13T05:44:08;13.20;99.90
45435;DHT22;31183;47.404;8.500;2023-05-13T05:46:34;13.30;99.90
45435;DHT22;31183;47.404;8.500;2023-05-13T05:49:01;13.40;99.90
45435;DHT22;31183;47.404;8.500;2023-05-13T05:51:29;13.40;99.90
45435;DHT22;31183;47.404;8.500;2023-05-13T05:53:55;13.60;99.90
45435;DHT22;31183;47.404;8.500;2023-05-13T05:56:22;13.70;99.90
45435;DHT22;31183;47.404;8.500;2023-05-13T05:58:48;13.70;99.90
45435;DHT22;31183;47.404;8.500;2023-05-13T06:01:15;13.70;99.90
45435;DHT22;31183;47.404;8.500;2023-05-13T06:03:41;13.70;99.90
45435;DHT22;31183;47.404;8.500;2023-05-13T06:06:08;13.60;99.90
45435;DHT22;31183;47.404;8.500;2023-05-13T06:08:35;13.40;99.90
45435;DHT22;31183;47.404;8.500;2023-05-13T06:11:01;13.30;99.90
45435;DHT22;31183;47.404;8.500;2023-05-13T06:13:28;13.20;99.90
45435;DHT22;31183;47.404;8.500;2023-05-13T06:15:55;13.10;99.90
45435;DHT22;31183;47.404;8.500;2023-05-13T06:18:21;13.10;99.90
45435;DHT22;31183;47.404;8.500;2023-05-13T06:20:48;13.10;99.90
45435;DHT22;31183;47.404;8.500;2023-05-13T06:23:15;13.30;99.90
45435;DHT22;31183;47.404;8.500;2023-05-13T06:25:42;13.30;99.90
45435;DHT22;31183;47.404;8.500;2023-05-13T06:28:09;13.20;99.90
45435;DHT22;31183;47.404;8.500;2023-05-13T06:30:36;13.20;99.90
45435;DHT22;31183;47.404;8.500;2023-05-13T06:33:04;13.20;99.90
45435;DHT22;31183;47.404;8.500;2023-05-13T06:35:30;13.30;99.90
45435;DHT22;31183;47.404;8.500;2023-05-13T06:37:57;13.20;99.90
45435;DHT22;31183;47.404;8.500;2023-05-13T06:40:24;13.30;99.90
45435;DHT22;31183;47.404;8.500;2023-05-13T06:42:50;13.40;99.90
45435;DHT22;31183;47.404;8.500;2023-05-13T06:45:17;13.50;99.90
45435;DHT22;31183;47.404;8.500;2023-05-13T06:47:49;13.50;99.90
45435;DHT22;31183;47.404;8.500;2023-05-13T06:50:16;13.60;99.90
45435;DHT22;31183;47.404;8.500;2023-05-13T06:52:42;13.60;99.90
45435;DHT22;31183;47.404;8.500;2023-05-13T06:55:09;13.70;99.90
45435;DHT22;31183;47.404;8.500;2023-05-13T06:57:36;13.70;99.90
45435;DHT22;31183;47.404;8.500;2023-05-13T07:00:09;13.60;99.90
45435;DHT22;31183;47.404;8.500;2023-05-13T07:02:36;13.60;99.90
45435;DHT22;31183;47.404;8.500;2023-05-13T07:05:03;13.60;99.90
45435;DHT22;31183;47.404;8.500;2023-05-13T07:07:30;13.70;99.90
45435;DHT22;31183;47.404;8.500;2023-05-13T07:09:56;13.70;99.90
45435;DHT22;31183;47.404;8.500;2023-05-13T07:12:23;13.60;99.90
45435;DHT22;31183;47.404;8.500;2023-05-13T07:14:50;13.60;99.90
45435;DHT22;31183;47.404;8.500;2023-05-13T07:17:17;13.60;99.90
45435;DHT22;31183;47.404;8.500;2023-05-13T07:19:43;13.60;99.90
45435;DHT22;31183;47.404;8.500;2023-05-13T07:22:10;13.60;99.90
45435;DHT22;31183;47.404;8.500;2023-05-13T07:24:37;13.80;99.90
45435;DHT22;31183;47.404;8.500;2023-05-13T07:27:04;13.80;99.90
45435;DHT22;31183;47.404;8.500;2023-05-13T07:29:30;14.00;99.90
45435;DHT22;31183;47.404;8.500;2023-05-13T07:32:02;13.90;99.90
45435;DHT22;31183;47.404;8.500;2023-05-13T07:34:29;14.00;99.90
45435;DHT22;31183;47.404;8.500;2023-05-13T07:36:56;14.10;99.90
45435;DHT22;31183;47.404;8.500;2023-05-13T07:39:23;14.10;99.90
45435;DHT22;31183;47.404;8.500;2023-05-13T07:41:50;14.10;99.90
45435;DHT22;31183;47.404;8.500;2023-05-13T07:44:17;14.00;99.90
45435;DHT22;31183;47.404;8.500;2023-05-13T07:46:44;13.90;99.90
45435;DHT22;31183;47.404;8.500;2023-05-13T07:49:10;13.80;99.90
45435;DHT22;31183;47.404;8.500;2023-05-13T07:51:37;13.80;99.90
45435;DHT22;31183;47.404;8.500;2023-05-13T07:54:03;13.90;99.90
45435;DHT22;31183;47.404;8.500;2023-05-13T07:56:30;13.90;99.90
45435;DHT22;31183;47.404;8.500;2023-05-13T07:58:57;14.00;99.90
45435;DHT22;31183;47.404;8.500;2023-05-13T08:01:23;14.10;99.90
45435;DHT22;31183;47.404;8.500;2023-05-13T08:03:50;14.20;99.90
45435;DHT22;31183;47.404;8.500;2023-05-13T08:06:17;14.10;99.90
45435;DHT22;31183;47.404;8.500;2023-05-13T08:08:43;14.00;99.90
45435;DHT22;31183;47.404;8.500;2023-05-13T08:11:10;13.90;99.90
45435;DHT22;31183;47.404;8.500;2023-05-13T08:13:36;14.00;99.90
45435;DHT22;31183;47.404;8.500;2023-05-13T08:16:04;14.00;99.90
45435;DHT22;31183;47.404;8.500;2023-05-13T08:18:32;14.00;99.90
45435;DHT22;31183;47.404;8.500;2023-05-13T08:20:59;14.00;99.90
45435;DHT22;31183;47.404;8.500;2023-05-13T08:23:25;14.10;99.90
45435;DHT22;31183;47.404;8.500;2023-05-13T08:26:10;14.10;99.90
45435;DHT22;31183;47.404;8.500;2023-05-13T08:28:37;14.10;99.90
45435;DHT22;31183;47.404;8.500;2023-05-13T08:31:03;14.20;99.90
45435;DHT22;31183;47.404;8.500;2023-05-13T08:33:31;14.20;99.90
45435;DHT22;31183;47.404;8.500;2023-05-13T08:35:59;14.20;99.90
45435;DHT22;31183;47.404;8.500;2023-05-13T08:38:26;14.20;99.90
45435;DHT22;31183;47.404;8.500;2023-05-13T08:40:53;14.20;99.90
45435;DHT22;31183;47.404;8.500;2023-05-13T08:43:22;14.20;99.90
45435;DHT22;31183;47.404;8.500;2023-05-13T08:45:50;14.20;99.90
45435;DHT22;31183;47.404;8.500;2023-05-13T08:48:19;14.20;99.90
45435;DHT22;31183;47.404;8.500;2023-05-13T08:50:46;14.30;99.90
45435;DHT22;31183;47.404;8.500;2023-05-13T08:53:16;14.30;99.90
45435;DHT22;31183;47.404;8.500;2023-05-13T08:55:42;14.30;99.90
45435;DHT22;31183;47.404;8.500;2023-05-13T08:58:09;14.30;99.90
45435;DHT22;31183;47.404;8.500;2023-05-13T09:00:36;14.40;99.90
45435;DHT22;31183;47.404;8.500;2023-05-13T09:03:03;14.30;99.90
45435;DHT22;31183;47.404;8.500;2023-05-13T09:05:29;14.30;99.90
45435;DHT22;31183;47.404;8.500;2023-05-13T09:07:57;14.30;99.90
45435;DHT22;31183;47.404;8.500;2023-05-13T09:10:24;14.20;99.90
45435;DHT22;31183;47.404;8.500;2023-05-13T09:12:52;14.30;99.90
45435;DHT22;31183;47.404;8.500;2023-05-13T09:15:20;14.30;99.90
45435;DHT22;31183;47.404;8.500;2023-05-13T09:17:49;14.30;99.90
45435;DHT22;31183;47.404;8.500;2023-05-13T09:20:19;14.40;99.90
45435;DHT22;31183;47.404;8.500;2023-05-13T09:23:00;14.40;99.90
45435;DHT22;31183;47.404;8.500;2023-05-13T09:25:27;14.40;99.90
45435;DHT22;31183;47.404;8.500;2023-05-13T09:27:59;14.40;99.90
45435;DHT22;31183;47.404;8.500;2023-05-13T09:30:34;14.50;99.90
45435;DHT22;31183;47.404;8.500;2023-05-13T09:33:05;14.50;99.90
45435;DHT22;31183;47.404;8.500;2023-05-13T09:35:34;14.50;99.90
45435;DHT22;31183;47.404;8.500;2023-05-13T09:38:17;14.40;99.90
45435;DHT22;31183;47.404;8.500;2023-05-13T09:41:11;14.50;99.90
45435;DHT22;31183;47.404;8.500;2023-05-13T09:43:37;14.50;99.90
45435;DHT22;31183;47.404;8.500;2023-05-13T09:46:05;14.60;99.90
45435;DHT22;31183;47.404;8.500;2023-05-13T09:48:34;14.50;99.90
45435;DHT22;31183;47.404;8.500;2023-05-13T09:51:04;14.60;99.90
45435;DHT22;31183;47.404;8.500;2023-05-13T09:53:31;14.60;99.90
45435;DHT22;31183;47.404;8.500;2023-05-13T09:55:58;14.60;99.90
45435;DHT22;31183;47.404;8.500;2023-05-13T09:58:27;14.60;99.90
45435;DHT22;31183;47.404;8.500;2023-05-13T10:00:54;14.80;99.90
45435;DHT22;31183;47.404;8.500;2023-05-13T10:03:21;14.80;99.90
45435;DHT22;31183;47.404;8.500;2023-05-13T10:05:48;14.90;99.90
45435;DHT22;31183;47.404;8.500;2023-05-13T10:08:16;14.90;99.90
45435;DHT22;31183;47.404;8.500;2023-05-13T10:10:43;14.90;99.90
45435;DHT22;31183;47.404;8.500;2023-05-13T10:13:17;14.90;99.90
45435;DHT22;31183;47.404;8.500;2023-05-13T10:15:49;14.90;99.90
45435;DHT22;31183;47.404;8.500;2023-05-13T10:18:17;14.90;99.90
45435;DHT22;31183;47.404;8.500;2023-05-13T10:20:45;15.00;99.90
45435;DHT22;31183;47.404;8.500;2023-05-13T10:23:12;15.00;99.90
45435;DHT22;31183;47.404;8.500;2023-05-13T10:25:40;15.00;99.90
45435;DHT22;31183;47.404;8.500;2023-05-13T10:28:09;15.00;99.90
45435;DHT22;31183;47.404;8.500;2023-05-13T10:30:36;15.10;99.90
45435;DHT22;31183;47.404;8.500;2023-05-13T10:33:03;15.10;99.90
45435;DHT22;31183;47.404;8.500;2023-05-13T10:35:36;15.10;99.90
45435;DHT22;31183;47.404;8.500;2023-05-13T10:38:16;15.20;99.90
45435;DHT22;31183;47.404;8.500;2023-05-13T10:40:53;15.20;99.90
45435;DHT22;31183;47.404;8.500;2023-05-13T10:43:26;15.30;99.90
45435;DHT22;31183;47.404;8.500;2023-05-13T10:46:01;15.40;99.90
45435;DHT22;31183;47.404;8.500;2023-05-13T10:49:02;15.50;99.90
45435;DHT22;31183;47.404;8.500;2023-05-13T10:51:28;15.50;99.90
45435;DHT22;31183;47.404;8.500;2023-05-13T10:53:56;15.50;99.90
45435;DHT22;31183;47.404;8.500;2023-05-13T10:56:27;15.60;99.90
45435;DHT22;31183;47.404;8.500;2023-05-13T10:59:04;15.50;99.90
45435;DHT22;31183;47.404;8.500;2023-05-13T11:01:40;15.60;99.90
45435;DHT22;31183;47.404;8.500;2023-05-13T11:04:15;15.60;99.90
45435;DHT22;31183;47.404;8.500;2023-05-13T11:06:44;15.60;99.90
45435;DHT22;31183;47.404;8.500;2023-05-13T11:11:58;15.70;99.90
45435;DHT22;31183;47.404;8.500;2023-05-13T11:14:26;15.70;99.90
45435;DHT22;31183;47.404;8.500;2023-05-13T11:19:29;15.60;99.90
45435;DHT22;31183;47.404;8.500;2023-05-13T11:22:03;15.70;99.90
45435;DHT22;31183;47.404;8.500;2023-05-13T11:24:30;15.70;99.90
45435;DHT22;31183;47.404;8.500;2023-05-13T11:26:58;15.70;99.90
45435;DHT22;31183;47.404;8.500;2023-05-13T11:29:37;15.80;99.90
45435;DHT22;31183;47.404;8.500;2023-05-13T11:32:05;15.80;99.90
45435;DHT22;31183;47.404;8.500;2023-05-13T11:34:33;15.90;99.90
45435;DHT22;31183;47.404;8.500;2023-05-13T11:39:31;15.90;99.90
45435;DHT22;31183;47.404;8.500;2023-05-13T11:41:59;15.90;99.90
45435;DHT22;31183;47.404;8.500;2023-05-13T11:44:29;16.00;98.80
45435;DHT22;31183;47.404;8.500;2023-05-13T11:47:04;15.90;98.90
45435;DHT22;31183;47.404;8.500;2023-05-13T11:49:44;15.90;98.70
45435;DHT22;31183;47.404;8.500;2023-05-13T11:52:17;15.80;99.40
45435;DHT22;31183;47.404;8.500;2023-05-13T11:54:48;15.80;99.10
45435;DHT22;31183;47.404;8.500;2023-05-13T11:57:19;15.80;98.60
45435;DHT22;31183;47.404;8.500;2023-05-13T11:59:57;15.80;98.30
45435;DHT22;31183;47.404;8.500;2023-05-13T12:02:31;15.80;98.50
45435;DHT22;31183;47.404;8.500;2023-05-13T12:05:01;15.80;97.50
45435;DHT22;31183;47.404;8.500;2023-05-13T12:07:30;15.80;98.00
45435;DHT22;31183;47.404;8.500;2023-05-13T12:09:59;15.80;97.80
45435;DHT22;31183;47.404;8.500;2023-05-13T12:12:28;15.70;98.00
45435;DHT22;31183;47.404;8.500;2023-05-13T12:14:57;15.70;98.30
45435;DHT22;31183;47.404;8.500;2023-05-13T12:17:25;15.80;98.40
45435;DHT22;31183;47.404;8.500;2023-05-13T12:22:54;15.80;98.40
45435;DHT22;31183;47.404;8.500;2023-05-13T12:25:52;15.80;98.10
45435;DHT22;31183;47.404;8.500;2023-05-13T12:28:19;15.90;97.80
45435;DHT22;31183;47.404;8.500;2023-05-13T12:31:00;15.90;98.20
45435;DHT22;31183;47.404;8.500;2023-05-13T12:33:32;15.90;98.90
45435;DHT22;31183;47.404;8.500;2023-05-13T12:36:27;15.90;98.20
45435;DHT22;31183;47.404;8.500;2023-05-13T12:39:09;15.80;98.20
45435;DHT22;31183;47.404;8.500;2023-05-13T12:41:38;15.80;98.50
45435;DHT22;31183;47.404;8.500;2023-05-13T12:44:09;15.80;98.30
45435;DHT22;31183;47.404;8.500;2023-05-13T12:46:36;15.70;97.60
45435;DHT22;31183;47.404;8.500;2023-05-13T12:49:04;15.70;98.10
45435;DHT22;31183;47.404;8.500;2023-05-13T12:51:31;15.70;97.90
45435;DHT22;31183;47.404;8.500;2023-05-13T12:54:01;15.70;97.60
45435;DHT22;31183;47.404;8.500;2023-05-13T12:56:27;15.70;98.00
45435;DHT22;31183;47.404;8.500;2023-05-13T12:58:54;15.70;97.20
45435;DHT22;31183;47.404;8.500;2023-05-13T13:01:21;15.70;96.90
45435;DHT22;31183;47.404;8.500;2023-05-13T13:03:48;15.70;97.10
45435;DHT22;31183;47.404;8.500;2023-05-13T13:06:15;15.80;97.00
45435;DHT22;31183;47.404;8.500;2023-05-13T13:08:42;15.80;96.50
45435;DHT22;31183;47.404;8.500;2023-05-13T13:11:08;15.80;96.70
45435;DHT22;31183;47.404;8.500;2023-05-13T13:13:35;15.80;96.40
45435;DHT22;31183;47.404;8.500;2023-05-13T13:16:05;15.90;96.80
45435;DHT22;31183;47.404;8.500;2023-05-13T13:18:32;15.90;95.90
45435;DHT22;31183;47.404;8.500;2023-05-13T13:20:58;15.90;96.30
45435;DHT22;31183;47.404;8.500;2023-05-13T13:23:25;15.90;96.10
45435;DHT22;31183;47.404;8.500;2023-05-13T13:25:51;15.90;96.20
45435;DHT22;31183;47.404;8.500;2023-05-13T13:28:18;15.90;96.50
45435;DHT22;31183;47.404;8.500;2023-05-13T13:30:45;15.90;96.90
45435;DHT22;31183;47.404;8.500;2023-05-13T13:33:13;15.90;96.70
45435;DHT22;31183;47.404;8.500;2023-05-13T13:35:42;16.00;96.70
45435;DHT22;31183;47.404;8.500;2023-05-13T13:38:09;16.00;96.50
45435;DHT22;31183;47.404;8.500;2023-05-13T13:40:36;16.00;95.70
45435;DHT22;31183;47.404;8.500;2023-05-13T13:43:05;15.90;96.10
45435;DHT22;31183;47.404;8.500;2023-05-13T13:45:33;15.90;96.40
45435;DHT22;31183;47.404;8.500;2023-05-13T13:48:00;15.90;95.40
45435;DHT22;31183;47.404;8.500;2023-05-13T13:50:27;15.90;95.40
45435;DHT22;31183;47.404;8.500;2023-05-13T13:52:54;15.80;95.60
45435;DHT22;31183;47.404;8.500;2023-05-13T13:55:21;15.90;95.40
45435;DHT22;31183;47.404;8.500;2023-05-13T13:57:48;15.80;94.60
45435;DHT22;31183;47.404;8.500;2023-05-13T14:00:15;15.80;94.60
45435;DHT22;31183;47.404;8.500;2023-05-13T14:02:43;15.70;95.40
45435;DHT22;31183;47.404;8.500;2023-05-13T14:05:10;15.70;95.60
45435;DHT22;31183;47.404;8.500;2023-05-13T14:07:37;15.70;96.00
45435;DHT22;31183;47.404;8.500;2023-05-13T14:10:05;15.70;96.00
45435;DHT22;31183;47.404;8.500;2023-05-13T14:12:32;15.70;95.80
45435;DHT22;31183;47.404;8.500;2023-05-13T14:14:58;15.70;96.00
45435;DHT22;31183;47.404;8.500;2023-05-13T14:17:25;15.60;96.00
45435;DHT22;31183;47.404;8.500;2023-05-13T14:19:52;15.60;96.20
45435;DHT22;31183;47.404;8.500;2023-05-13T14:22:21;15.60;96.10
45435;DHT22;31183;47.404;8.500;2023-05-13T14:24:50;15.60;96.10
45435;DHT22;31183;47.404;8.500;2023-05-13T14:27:17;15.60;96.50
45435;DHT22;31183;47.404;8.500;2023-05-13T14:29:45;15.60;96.50
45435;DHT22;31183;47.404;8.500;2023-05-13T14:32:12;15.60;96.50
45435;DHT22;31183;47.404;8.500;2023-05-13T14:34:39;15.60;96.30
45435;DHT22;31183;47.404;8.500;2023-05-13T14:37:06;15.50;96.50
45435;DHT22;31183;47.404;8.500;2023-05-13T14:39:32;15.50;96.60
45435;DHT22;31183;47.404;8.500;2023-05-13T14:42:00;15.50;97.10
45435;DHT22;31183;47.404;8.500;2023-05-13T14:44:26;15.50;97.10
45435;DHT22;31183;47.404;8.500;2023-05-13T14:46:53;15.50;97.10
45435;DHT22;31183;47.404;8.500;2023-05-13T14:49:20;15.50;97.10
45435;DHT22;31183;47.404;8.500;2023-05-13T14:51:46;15.50;96.80
45435;DHT22;31183;47.404;8.500;2023-05-13T14:54:13;15.50;96.50
45435;DHT22;31183;47.404;8.500;2023-05-13T14:56:39;15.50;96.60
45435;DHT22;31183;47.404;8.500;2023-05-13T14:59:07;15.50;96.40
45435;DHT22;31183;47.404;8.500;2023-05-13T15:01:33;15.40;96.40
45435;DHT22;31183;47.404;8.500;2023-05-13T15:04:00;15.50;96.60
45435;DHT22;31183;47.404;8.500;2023-05-13T15:06:27;15.40;97.10
45435;DHT22;31183;47.404;8.500;2023-05-13T15:08:54;15.40;97.30
45435;DHT22;31183;47.404;8.500;2023-05-13T15:11:21;15.40;97.40
45435;DHT22;31183;47.404;8.500;2023-05-13T15:13:48;15.40;97.40
45435;DHT22;31183;47.404;8.500;2023-05-13T15:16:15;15.50;97.10
45435;DHT22;31183;47.404;8.500;2023-05-13T15:18:41;15.50;97.20
45435;DHT22;31183;47.404;8.500;2023-05-13T15:21:08;15.50;97.20
45435;DHT22;31183;47.404;8.500;2023-05-13T15:23:35;15.50;97.10
45435;DHT22;31183;47.404;8.500;2023-05-13T15:26:01;15.40;97.30
45435;DHT22;31183;47.404;8.500;2023-05-13T15:28:28;15.40;97.60
45435;DHT22;31183;47.404;8.500;2023-05-13T15:30:55;15.40;97.70
45435;DHT22;31183;47.404;8.500;2023-05-13T15:33:21;15.30;97.60
45435;DHT22;31183;47.404;8.500;2023-05-13T15:35:48;15.30;97.70
45435;DHT22;31183;47.404;8.500;2023-05-13T15:38:15;15.30;97.40
45435;DHT22;31183;47.404;8.500;2023-05-13T15:40:42;15.40;97.60
45435;DHT22;31183;47.404;8.500;2023-05-13T15:43:08;15.40;97.60
45435;DHT22;31183;47.404;8.500;2023-05-13T15:45:35;15.40;97.50
45435;DHT22;31183;47.404;8.500;2023-05-13T15:48:01;15.40;97.60
45435;DHT22;31183;47.404;8.500;2023-05-13T15:50:28;15.40;97.80
45435;DHT22;31183;47.404;8.500;2023-05-13T15:52:55;15.30;97.80